Terminal Aerodrome Forecast
Issued by NWS Duluth, MN

Home | Current Version | Previous Version | Text Only | Print | Product List | Glossary On
Versions: 1 2 3 4 5 6 7 8 9 10 11 12 13 14 15 16 17 18 19 20 21 22 23 24 25 26 27 28 29 30 31 32 33 34 35 36 37 38 39 40 41 42 43 44 45 46 47 48 49 50
000
FTUS43 KDLH 300500
TAFDLH
TAF
KDLH 300529Z 3006/3106 02003KT P6SM SCT005 OVC020
      TEMPO 3006/3009 1 1/2SM BR BKN005
     FM300900 04005KT 1SM BR OVC004
      TEMPO 3009/3013 1/2SM FG VV002
     FM301500 04008KT 4SM BR OVC004
     FM301800 08008KT P6SM VCSH BKN025
     FM310100 08005KT P6SM SCT050=

USA.gov is the U.S. government's official web portal to all federal, state and local government web resources and services.